sensor_id;sensor_type;location;lat;lon;timestamp;P1;durP1;ratioP1;P2;durP2;ratioP2
70967;SDS011;58629;48.808;8.820;2023-04-29T00:01:13;2.47;;;1.50;;
70967;SDS011;58629;48.808;8.820;2023-04-29T00:03:39;2.07;;;1.30;;
70967;SDS011;58629;48.808;8.820;2023-04-29T00:06:04;2.20;;;1.57;;
70967;SDS011;58629;48.808;8.820;2023-04-29T00:08:29;2.00;;;1.60;;
70967;SDS011;58629;48.808;8.820;2023-04-29T00:10:54;1.60;;;1.50;;
70967;SDS011;58629;48.808;8.820;2023-04-29T00:13:20;1.90;;;1.70;;
70967;SDS011;58629;48.808;8.820;2023-04-29T00:15:45;1.87;;;1.70;;
70967;SDS011;58629;48.808;8.820;2023-04-29T00:18:10;1.70;;;1.50;;
70967;SDS011;58629;48.808;8.820;2023-04-29T00:20:37;1.40;;;1.30;;
70967;SDS011;58629;48.808;8.820;2023-04-29T00:23:03;1.92;;;1.27;;
70967;SDS011;58629;48.808;8.820;2023-04-29T00:25:28;1.20;;;1.10;;
70967;SDS011;58629;48.808;8.820;2023-04-29T00:27:54;1.50;;;1.40;;
70967;SDS011;58629;48.808;8.820;2023-04-29T00:30:20;1.20;;;1.10;;
70967;SDS011;58629;48.808;8.820;2023-04-29T00:32:45;1.13;;;1.03;;
70967;SDS011;58629;48.808;8.820;2023-04-29T00:35:11;1.40;;;1.20;;
70967;SDS011;58629;48.808;8.820;2023-04-29T00:37:36;1.20;;;1.10;;
70967;SDS011;58629;48.808;8.820;2023-04-29T00:40:02;1.20;;;1.10;;
70967;SDS011;58629;48.808;8.820;2023-04-29T00:42:28;1.10;;;1.00;;
70967;SDS011;58629;48.808;8.820;2023-04-29T00:44:55;1.10;;;1.00;;
70967;SDS011;58629;48.808;8.820;2023-04-29T00:47:21;1.27;;;1.17;;
70967;SDS011;58629;48.808;8.820;2023-04-29T00:49:46;1.30;;;1.03;;
70967;SDS011;58629;48.808;8.820;2023-04-29T00:52:11;1.10;;;1.00;;
70967;SDS011;58629;48.808;8.820;2023-04-29T00:54:38;1.08;;;0.90;;
70967;SDS011;58629;48.808;8.820;2023-04-29T00:57:04;1.55;;;1.25;;
70967;SDS011;58629;48.808;8.820;2023-04-29T00:59:31;2.00;;;1.30;;
70967;SDS011;58629;48.808;8.820;2023-04-29T01:02:01;1.30;;;1.20;;
70967;SDS011;58629;48.808;8.820;2023-04-29T01:04:27;1.20;;;1.10;;
70967;SDS011;58629;48.808;8.820;2023-04-29T01:12:21;1.55;;;1.20;;
70967;SDS011;58629;48.808;8.820;2023-04-29T01:15:02;1.70;;;1.60;;
70967;SDS011;58629;48.808;8.820;2023-04-29T01:17:42;1.40;;;1.23;;
70967;SDS011;58629;48.808;8.820;2023-04-29T01:20:12;2.10;;;1.40;;
70967;SDS011;58629;48.808;8.820;2023-04-29T01:22:38;1.30;;;1.10;;
70967;SDS011;58629;48.808;8.820;2023-04-29T01:25:04;2.40;;;1.45;;
70967;SDS011;58629;48.808;8.820;2023-04-29T01:27:32;2.65;;;1.80;;
70967;SDS011;58629;48.808;8.820;2023-04-29T01:30:04;1.73;;;1.60;;
70967;SDS011;58629;48.808;8.820;2023-04-29T01:38:33;2.03;;;1.80;;
70967;SDS011;58629;48.808;8.820;2023-04-29T01:41:08;2.00;;;1.55;;
70967;SDS011;58629;48.808;8.820;2023-04-29T01:43:34;2.65;;;1.88;;
70967;SDS011;58629;48.808;8.820;2023-04-29T01:46:01;2.80;;;1.77;;
70967;SDS011;58629;48.808;8.820;2023-04-29T01:48:30;2.40;;;1.90;;
70967;SDS011;58629;48.808;8.820;2023-04-29T01:50:56;4.47;;;1.80;;
70967;SDS011;58629;48.808;8.820;2023-04-29T01:53:22;2.90;;;1.70;;
70967;SDS011;58629;48.808;8.820;2023-04-29T01:55:47;2.53;;;1.70;;
70967;SDS011;58629;48.808;8.820;2023-04-29T01:58:12;2.13;;;1.90;;
70967;SDS011;58629;48.808;8.820;2023-04-29T02:00:38;2.37;;;1.77;;
70967;SDS011;58629;48.808;8.820;2023-04-29T02:03:03;2.40;;;1.90;;
70967;SDS011;58629;48.808;8.820;2023-04-29T02:05:29;2.03;;;1.83;;
70967;SDS011;58629;48.808;8.820;2023-04-29T02:07:57;1.75;;;1.65;;
70967;SDS011;58629;48.808;8.820;2023-04-29T02:10:23;1.70;;;1.30;;
70967;SDS011;58629;48.808;8.820;2023-04-29T02:12:48;1.90;;;1.70;;
70967;SDS011;58629;48.808;8.820;2023-04-29T02:15:13;2.60;;;1.50;;
70967;SDS011;58629;48.808;8.820;2023-04-29T02:17:39;1.70;;;1.40;;
70967;SDS011;58629;48.808;8.820;2023-04-29T02:20:05;1.60;;;1.40;;
70967;SDS011;58629;48.808;8.820;2023-04-29T02:22:31;1.40;;;1.02;;
70967;SDS011;58629;48.808;8.820;2023-04-29T02:24:56;2.50;;;1.30;;
70967;SDS011;58629;48.808;8.820;2023-04-29T02:27:22;1.20;;;1.10;;
70967;SDS011;58629;48.808;8.820;2023-04-29T02:29:47;1.20;;;1.10;;
70967;SDS011;58629;48.808;8.820;2023-04-29T02:32:12;1.47;;;1.00;;
70967;SDS011;58629;48.808;8.820;2023-04-29T02:34:39;2.25;;;1.27;;
70967;SDS011;58629;48.808;8.820;2023-04-29T02:37:05;1.30;;;1.00;;
70967;SDS011;58629;48.808;8.820;2023-04-29T02:39:30;1.40;;;1.00;;
70967;SDS011;58629;48.808;8.820;2023-04-29T02:41:55;1.30;;;1.20;;
70967;SDS011;58629;48.808;8.820;2023-04-29T02:44:21;1.67;;;1.40;;
70967;SDS011;58629;48.808;8.820;2023-04-29T02:46:46;1.75;;;1.20;;
70967;SDS011;58629;48.808;8.820;2023-04-29T02:49:12;1.63;;;1.43;;
70967;SDS011;58629;48.808;8.820;2023-04-29T02:51:38;1.60;;;1.10;;
70967;SDS011;58629;48.808;8.820;2023-04-29T02:54:03;1.37;;;1.27;;
70967;SDS011;58629;48.808;8.820;2023-04-29T02:56:28;1.93;;;1.47;;
70967;SDS011;58629;48.808;8.820;2023-04-29T02:58:53;1.80;;;1.57;;
70967;SDS011;58629;48.808;8.820;2023-04-29T03:01:19;1.80;;;1.40;;
70967;SDS011;58629;48.808;8.820;2023-04-29T03:03:45;1.50;;;1.25;;
70967;SDS011;58629;48.808;8.820;2023-04-29T03:06:10;1.80;;;1.40;;
70967;SDS011;58629;48.808;8.820;2023-04-29T03:08:35;1.50;;;1.30;;
70967;SDS011;58629;48.808;8.820;2023-04-29T03:11:01;1.70;;;1.40;;
70967;SDS011;58629;48.808;8.820;2023-04-29T03:13:26;1.30;;;1.10;;
70967;SDS011;58629;48.808;8.820;2023-04-29T03:15:51;1.30;;;1.10;;
70967;SDS011;58629;48.808;8.820;2023-04-29T03:18:17;1.50;;;1.23;;
70967;SDS011;58629;48.808;8.820;2023-04-29T03:20:42;1.73;;;1.40;;
70967;SDS011;58629;48.808;8.820;2023-04-29T03:23:07;1.93;;;1.70;;
70967;SDS011;58629;48.808;8.820;2023-04-29T03:25:33;2.07;;;1.50;;
70967;SDS011;58629;48.808;8.820;2023-04-29T03:27:58;2.27;;;1.40;;
70967;SDS011;58629;48.808;8.820;2023-04-29T03:30:23;2.80;;;2.00;;
70967;SDS011;58629;48.808;8.820;2023-04-29T03:32:49;3.00;;;2.03;;
70967;SDS011;58629;48.808;8.820;2023-04-29T03:35:14;2.40;;;1.83;;
70967;SDS011;58629;48.808;8.820;2023-04-29T03:37:39;2.80;;;1.80;;
70967;SDS011;58629;48.808;8.820;2023-04-29T03:40:08;1.95;;;1.60;;
70967;SDS011;58629;48.808;8.820;2023-04-29T03:42:34;1.60;;;1.42;;
70967;SDS011;58629;48.808;8.820;2023-04-29T03:44:59;1.83;;;1.40;;
70967;SDS011;58629;48.808;8.820;2023-04-29T03:47:24;1.93;;;1.43;;
70967;SDS011;58629;48.808;8.820;2023-04-29T03:49:49;1.90;;;1.60;;
70967;SDS011;58629;48.808;8.820;2023-04-29T03:52:15;2.20;;;1.70;;
70967;SDS011;58629;48.808;8.820;2023-04-29T03:54:40;2.20;;;1.77;;
70967;SDS011;58629;48.808;8.820;2023-04-29T03:57:06;2.25;;;1.90;;
70967;SDS011;58629;48.808;8.820;2023-04-29T03:59:31;2.13;;;1.80;;
70967;SDS011;58629;48.808;8.820;2023-04-29T04:01:56;3.40;;;2.10;;
70967;SDS011;58629;48.808;8.820;2023-04-29T04:04:22;2.80;;;2.17;;
70967;SDS011;58629;48.808;8.820;2023-04-29T04:06:47;2.30;;;2.10;;
70967;SDS011;58629;48.808;8.820;2023-04-29T04:09:15;2.15;;;1.83;;
70967;SDS011;58629;48.808;8.820;2023-04-29T04:11:42;2.08;;;1.83;;
70967;SDS011;58629;48.808;8.820;2023-04-29T04:14:07;1.90;;;1.60;;
70967;SDS011;58629;48.808;8.820;2023-04-29T04:16:32;2.20;;;1.87;;
70967;SDS011;58629;48.808;8.820;2023-04-29T04:18:57;2.33;;;1.90;;
70967;SDS011;58629;48.808;8.820;2023-04-29T04:21:23;2.80;;;1.90;;
70967;SDS011;58629;48.808;8.820;2023-04-29T04:23:49;4.28;;;2.83;;
70967;SDS011;58629;48.808;8.820;2023-04-29T04:26:15;2.70;;;2.30;;
70967;SDS011;58629;48.808;8.820;2023-04-29T04:28:40;2.67;;;2.17;;
70967;SDS011;58629;48.808;8.820;2023-04-29T04:31:05;3.70;;;2.53;;
70967;SDS011;58629;48.808;8.820;2023-04-29T04:33:32;5.60;;;3.92;;
70967;SDS011;58629;48.808;8.820;2023-04-29T04:35:58;5.25;;;4.07;;
70967;SDS011;58629;48.808;8.820;2023-04-29T04:38:23;6.30;;;4.10;;
70967;SDS011;58629;48.808;8.820;2023-04-29T04:40:50;5.70;;;4.50;;
70967;SDS011;58629;48.808;8.820;2023-04-29T04:43:15;7.27;;;4.40;;
70967;SDS011;58629;48.808;8.820;2023-04-29T04:45:41;7.93;;;4.90;;
70967;SDS011;58629;48.808;8.820;2023-04-29T04:48:06;6.30;;;4.90;;
70967;SDS011;58629;48.808;8.820;2023-04-29T04:50:32;6.20;;;4.80;;
70967;SDS011;58629;48.808;8.820;2023-04-29T04:52:57;5.80;;;4.67;;
70967;SDS011;58629;48.808;8.820;2023-04-29T04:55:23;5.90;;;4.40;;
70967;SDS011;58629;48.808;8.820;2023-04-29T04:57:48;5.83;;;3.70;;
70967;SDS011;58629;48.808;8.820;2023-04-29T05:00:14;5.32;;;4.15;;
70967;SDS011;58629;48.808;8.820;2023-04-29T05:02:39;6.33;;;4.67;;
70967;SDS011;58629;48.808;8.820;2023-04-29T05:05:05;6.28;;;4.53;;
70967;SDS011;58629;48.808;8.820;2023-04-29T05:07:31;5.13;;;4.05;;
70967;SDS011;58629;48.808;8.820;2023-04-29T05:09:59;5.43;;;4.30;;
70967;SDS011;58629;48.808;8.820;2023-04-29T05:12:26;4.75;;;3.95;;
70967;SDS011;58629;48.808;8.820;2023-04-29T05:14:54;5.80;;;4.13;;
70967;SDS011;58629;48.808;8.820;2023-04-29T05:17:20;4.97;;;3.50;;
70967;SDS011;58629;48.808;8.820;2023-04-29T05:19:45;4.87;;;3.87;;
70967;SDS011;58629;48.808;8.820;2023-04-29T05:22:10;5.70;;;4.50;;
70967;SDS011;58629;48.808;8.820;2023-04-29T05:24:35;6.50;;;4.50;;
70967;SDS011;58629;48.808;8.820;2023-04-29T05:27:01;5.83;;;4.20;;
70967;SDS011;58629;48.808;8.820;2023-04-29T05:29:28;5.13;;;4.00;;
70967;SDS011;58629;48.808;8.820;2023-04-29T05:31:54;5.45;;;4.15;;
70967;SDS011;58629;48.808;8.820;2023-04-29T05:34:19;4.70;;;3.55;;
70967;SDS011;58629;48.808;8.820;2023-04-29T05:36:44;4.03;;;3.43;;
70967;SDS011;58629;48.808;8.820;2023-04-29T05:39:10;4.00;;;3.30;;
70967;SDS011;58629;48.808;8.820;2023-04-29T05:41:35;4.23;;;3.50;;
70967;SDS011;58629;48.808;8.820;2023-04-29T05:44:01;3.78;;;2.78;;
70967;SDS011;58629;48.808;8.820;2023-04-29T05:46:26;3.55;;;2.88;;
70967;SDS011;58629;48.808;8.820;2023-04-29T05:48:51;3.78;;;2.97;;
70967;SDS011;58629;48.808;8.820;2023-04-29T05:51:17;4.57;;;3.00;;
70967;SDS011;58629;48.808;8.820;2023-04-29T05:53:42;4.67;;;2.93;;
70967;SDS011;58629;48.808;8.820;2023-04-29T05:56:07;4.47;;;3.00;;
70967;SDS011;58629;48.808;8.820;2023-04-29T05:58:33;3.30;;;2.80;;
70967;SDS011;58629;48.808;8.820;2023-04-29T06:00:59;6.93;;;3.13;;
70967;SDS011;58629;48.808;8.820;2023-04-29T06:03:25;4.23;;;3.03;;
70967;SDS011;58629;48.808;8.820;2023-04-29T06:05:50;6.13;;;3.22;;
70967;SDS011;58629;48.808;8.820;2023-04-29T06:08:16;4.20;;;2.90;;
70967;SDS011;58629;48.808;8.820;2023-04-29T06:10:41;3.40;;;2.60;;
70967;SDS011;58629;48.808;8.820;2023-04-29T06:13:07;4.45;;;2.90;;
70967;SDS011;58629;48.808;8.820;2023-04-29T06:15:32;3.88;;;3.13;;
70967;SDS011;58629;48.808;8.820;2023-04-29T06:17:57;3.53;;;2.97;;
70967;SDS011;58629;48.808;8.820;2023-04-29T06:20:23;4.57;;;3.33;;
70967;SDS011;58629;48.808;8.820;2023-04-29T06:22:48;3.87;;;3.03;;
70967;SDS011;58629;48.808;8.820;2023-04-29T06:25:13;5.07;;;3.10;;
70967;SDS011;58629;48.808;8.820;2023-04-29T06:27:39;3.60;;;2.93;;
70967;SDS011;58629;48.808;8.820;2023-04-29T06:30:04;3.83;;;3.20;;
70967;SDS011;58629;48.808;8.820;2023-04-29T06:32:30;3.92;;;3.03;;
70967;SDS011;58629;48.808;8.820;2023-04-29T06:34:56;7.40;;;3.37;;
70967;SDS011;58629;48.808;8.820;2023-04-29T06:37:21;4.57;;;2.90;;
70967;SDS011;58629;48.808;8.820;2023-04-29T06:39:46;3.70;;;3.10;;
70967;SDS011;58629;48.808;8.820;2023-04-29T06:42:12;3.40;;;2.83;;
70967;SDS011;58629;48.808;8.820;2023-04-29T06:44:37;3.30;;;2.70;;
70967;SDS011;58629;48.808;8.820;2023-04-29T06:47:02;3.90;;;2.80;;
70967;SDS011;58629;48.808;8.820;2023-04-29T06:49:28;3.57;;;2.57;;
70967;SDS011;58629;48.808;8.820;2023-04-29T06:51:53;3.00;;;2.40;;
70967;SDS011;58629;48.808;8.820;2023-04-29T06:54:18;2.73;;;2.20;;
70967;SDS011;58629;48.808;8.820;2023-04-29T06:56:44;4.27;;;1.97;;
70967;SDS011;58629;48.808;8.820;2023-04-29T06:59:09;2.90;;;2.10;;
70967;SDS011;58629;48.808;8.820;2023-04-29T07:01:36;1.90;;;1.52;;
70967;SDS011;58629;48.808;8.820;2023-04-29T07:04:02;4.13;;;2.00;;
70967;SDS011;58629;48.808;8.820;2023-04-29T07:06:27;2.20;;;1.60;;
70967;SDS011;58629;48.808;8.820;2023-04-29T07:08:53;2.00;;;1.70;;
70967;SDS011;58629;48.808;8.820;2023-04-29T07:11:18;1.93;;;1.47;;
70967;SDS011;58629;48.808;8.820;2023-04-29T07:13:43;1.77;;;1.30;;
70967;SDS011;58629;48.808;8.820;2023-04-29T07:16:15;3.15;;;1.80;;
70967;SDS011;58629;48.808;8.820;2023-04-29T07:18:42;2.23;;;1.80;;
70967;SDS011;58629;48.808;8.820;2023-04-29T07:21:08;2.72;;;1.85;;
70967;SDS011;58629;48.808;8.820;2023-04-29T07:23:33;2.30;;;1.80;;
70967;SDS011;58629;48.808;8.820;2023-04-29T07:25:58;3.33;;;2.07;;
70967;SDS011;58629;48.808;8.820;2023-04-29T07:28:33;3.22;;;1.90;;
70967;SDS011;58629;48.808;8.820;2023-04-29T07:30:58;2.27;;;1.73;;
70967;SDS011;58629;48.808;8.820;2023-04-29T07:33:23;2.77;;;1.80;;
70967;SDS011;58629;48.808;8.820;2023-04-29T07:35:49;2.60;;;1.87;;
70967;SDS011;58629;48.808;8.820;2023-04-29T07:38:14;2.30;;;1.80;;
70967;SDS011;58629;48.808;8.820;2023-04-29T07:40:40;2.33;;;1.70;;
70967;SDS011;58629;48.808;8.820;2023-04-29T07:43:06;2.92;;;1.83;;
70967;SDS011;58629;48.808;8.820;2023-04-29T07:45:33;2.05;;;1.73;;
70967;SDS011;58629;48.808;8.820;2023-04-29T07:47:58;2.50;;;1.70;;
70967;SDS011;58629;48.808;8.820;2023-04-29T07:50:23;2.00;;;1.40;;
70967;SDS011;58629;48.808;8.820;2023-04-29T07:52:48;2.17;;;1.60;;
70967;SDS011;58629;48.808;8.820;2023-04-29T07:55:14;2.33;;;1.93;;
70967;SDS011;58629;48.808;8.820;2023-04-29T07:57:39;2.83;;;1.97;;
70967;SDS011;58629;48.808;8.820;2023-04-29T08:00:05;2.30;;;1.80;;
70967;SDS011;58629;48.808;8.820;2023-04-29T08:02:32;2.45;;;1.90;;
70967;SDS011;58629;48.808;8.820;2023-04-29T08:04:58;3.17;;;2.20;;
70967;SDS011;58629;48.808;8.820;2023-04-29T08:07:24;3.42;;;2.20;;
70967;SDS011;58629;48.808;8.820;2023-04-29T08:09:50;3.27;;;2.50;;
70967;SDS011;58629;48.808;8.820;2023-04-29T08:12:15;4.00;;;2.40;;
70967;SDS011;58629;48.808;8.820;2023-04-29T08:14:40;3.67;;;2.07;;
70967;SDS011;58629;48.808;8.820;2023-04-29T08:17:05;2.70;;;2.10;;
70967;SDS011;58629;48.808;8.820;2023-04-29T08:19:32;2.90;;;2.22;;
70967;SDS011;58629;48.808;8.820;2023-04-29T08:21:57;2.60;;;2.17;;
70967;SDS011;58629;48.808;8.820;2023-04-29T08:24:22;4.10;;;2.30;;
70967;SDS011;58629;48.808;8.820;2023-04-29T08:26:48;5.90;;;2.10;;
70967;SDS011;58629;48.808;8.820;2023-04-29T08:29:13;2.73;;;2.20;;
70967;SDS011;58629;48.808;8.820;2023-04-29T08:31:38;3.83;;;2.20;;
70967;SDS011;58629;48.808;8.820;2023-04-29T08:34:03;3.57;;;2.13;;
70967;SDS011;58629;48.808;8.820;2023-04-29T08:36:29;4.63;;;2.30;;
70967;SDS011;58629;48.808;8.820;2023-04-29T08:38:54;5.13;;;2.40;;
70967;SDS011;58629;48.808;8.820;2023-04-29T08:41:20;2.93;;;2.20;;
70967;SDS011;58629;48.808;8.820;2023-04-29T08:43:45;2.38;;;1.90;;
70967;SDS011;58629;48.808;8.820;2023-04-29T08:46:11;3.97;;;2.20;;
70967;SDS011;58629;48.808;8.820;2023-04-29T08:48:37;3.67;;;2.30;;
70967;SDS011;58629;48.808;8.820;2023-04-29T08:51:06;2.77;;;1.90;;
70967;SDS011;58629;48.808;8.820;2023-04-29T08:53:32;2.90;;;2.17;;
70967;SDS011;58629;48.808;8.820;2023-04-29T08:55:59;2.43;;;2.20;;
70967;SDS011;58629;48.808;8.820;2023-04-29T08:58:33;3.92;;;2.40;;
70967;SDS011;58629;48.808;8.820;2023-04-29T09:01:00;2.40;;;2.10;;
70967;SDS011;58629;48.808;8.820;2023-04-29T09:03:30;3.15;;;2.33;;
70967;SDS011;58629;48.808;8.820;2023-04-29T09:06:01;2.53;;;2.30;;
70967;SDS011;58629;48.808;8.820;2023-04-29T09:08:28;3.10;;;2.38;;
70967;SDS011;58629;48.808;8.820;2023-04-29T09:10:54;2.90;;;2.55;;
70967;SDS011;58629;48.808;8.820;2023-04-29T09:13:24;3.08;;;2.60;;
70967;SDS011;58629;48.808;8.820;2023-04-29T09:15:53;4.53;;;2.50;;
70967;SDS011;58629;48.808;8.820;2023-04-29T09:21:14;2.85;;;2.10;;
70967;SDS011;58629;48.808;8.820;2023-04-29T09:23:41;3.22;;;2.60;;
70967;SDS011;58629;48.808;8.820;2023-04-29T09:26:07;2.88;;;2.38;;
70967;SDS011;58629;48.808;8.820;2023-04-29T09:28:32;3.75;;;2.20;;
70967;SDS011;58629;48.808;8.820;2023-04-29T09:30:58;5.20;;;2.50;;
70967;SDS011;58629;48.808;8.820;2023-04-29T09:33:23;3.53;;;2.53;;
70967;SDS011;58629;48.808;8.820;2023-04-29T09:35:52;3.67;;;2.70;;
70967;SDS011;58629;48.808;8.820;2023-04-29T09:38:17;4.43;;;2.70;;
70967;SDS011;58629;48.808;8.820;2023-04-29T09:40:43;3.77;;;2.60;;
70967;SDS011;58629;48.808;8.820;2023-04-29T09:43:15;2.90;;;2.33;;
70967;SDS011;58629;48.808;8.820;2023-04-29T09:45:43;3.90;;;2.47;;
70967;SDS011;58629;48.808;8.820;2023-04-29T09:48:10;2.85;;;2.15;;
70967;SDS011;58629;48.808;8.820;2023-04-29T09:50:36;2.80;;;2.47;;
70967;SDS011;58629;48.808;8.820;2023-04-29T09:53:03;3.47;;;2.30;;
70967;SDS011;58629;48.808;8.820;2023-04-29T09:55:56;3.28;;;2.58;;
70967;SDS011;58629;48.808;8.820;2023-04-29T09:58:27;3.75;;;2.83;;
70967;SDS011;58629;48.808;8.820;2023-04-29T10:00:54;3.88;;;3.00;;
70967;SDS011;58629;48.808;8.820;2023-04-29T10:03:23;3.47;;;2.55;;
70967;SDS011;58629;48.808;8.820;2023-04-29T10:05:49;4.23;;;3.10;;
70967;SDS011;58629;48.808;8.820;2023-04-29T10:08:15;4.65;;;2.72;;
70967;SDS011;58629;48.808;8.820;2023-04-29T10:10:40;3.10;;;2.80;;
70967;SDS011;58629;48.808;8.820;2023-04-29T10:13:05;3.20;;;2.80;;
70967;SDS011;58629;48.808;8.820;2023-04-29T10:15:34;5.03;;;3.00;;
70967;SDS011;58629;48.808;8.820;2023-04-29T10:18:11;3.80;;;2.80;;
70967;SDS011;58629;48.808;8.820;2023-04-29T10:20:45;3.22;;;2.53;;
70967;SDS011;58629;48.808;8.820;2023-04-29T10:23:12;3.70;;;2.40;;
70967;SDS011;58629;48.808;8.820;2023-04-29T10:25:41;4.97;;;2.70;;
70967;SDS011;58629;48.808;8.820;2023-04-29T10:28:09;3.72;;;2.85;;
70967;SDS011;58629;48.808;8.820;2023-04-29T10:30:41;4.18;;;2.72;;
70967;SDS011;58629;48.808;8.820;2023-04-29T10:33:08;3.88;;;2.83;;
70967;SDS011;58629;48.808;8.820;2023-04-29T10:35:35;3.80;;;3.00;;
70967;SDS011;58629;48.808;8.820;2023-04-29T10:38:01;5.03;;;2.88;;
70967;SDS011;58629;48.808;8.820;2023-04-29T10:40:43;3.65;;;2.92;;
70967;SDS011;58629;48.808;8.820;2023-04-29T10:43:12;3.33;;;2.88;;
70967;SDS011;58629;48.808;8.820;2023-04-29T10:45:39;4.90;;;2.90;;
70967;SDS011;58629;48.808;8.820;2023-04-29T10:48:08;2.97;;;2.40;;
70967;SDS011;58629;48.808;8.820;2023-04-29T10:53:12;4.07;;;2.27;;
70967;SDS011;58629;48.808;8.820;2023-04-29T10:55:45;3.65;;;2.58;;
70967;SDS011;58629;48.808;8.820;2023-04-29T11:00:59;4.10;;;2.40;;
70967;SDS011;58629;48.808;8.820;2023-04-29T11:06:23;3.33;;;1.98;;
70967;SDS011;58629;48.808;8.820;2023-04-29T11:09:03;3.35;;;2.00;;
70967;SDS011;58629;48.808;8.820;2023-04-29T11:11:45;3.40;;;2.20;;
70967;SDS011;58629;48.808;8.820;2023-04-29T11:16:51;2.20;;;1.70;;
70967;SDS011;58629;48.808;8.820;2023-04-29T11:19:18;3.63;;;1.95;;
70967;SDS011;58629;48.808;8.820;2023-04-29T11:21:44;2.30;;;2.00;;
70967;SDS011;58629;48.808;8.820;2023-04-29T11:24:14;2.70;;;2.00;;
70967;SDS011;58629;48.808;8.820;2023-04-29T11:26:40;3.72;;;2.30;;
70967;SDS011;58629;48.808;8.820;2023-04-29T11:29:07;2.63;;;2.00;;
70967;SDS011;58629;48.808;8.820;2023-04-29T11:31:36;2.83;;;2.42;;
70967;SDS011;58629;48.808;8.820;2023-04-29T11:34:03;3.38;;;2.67;;
70967;SDS011;58629;48.808;8.820;2023-04-29T11:36:30;4.32;;;3.13;;
70967;SDS011;58629;48.808;8.820;2023-04-29T11:38:58;4.25;;;2.75;;
70967;SDS011;58629;48.808;8.820;2023-04-29T11:41:24;4.18;;;2.78;;
70967;SDS011;58629;48.808;8.820;2023-04-29T11:43:57;4.22;;;2.80;;
70967;SDS011;58629;48.808;8.820;2023-04-29T11:46:23;3.42;;;2.47;;
70967;SDS011;58629;48.808;8.820;2023-04-29T11:48:49;6.40;;;4.38;;
70967;SDS011;58629;48.808;8.820;2023-04-29T11:51:15;6.83;;;4.50;;
70967;SDS011;58629;48.808;8.820;2023-04-29T11:53:41;7.55;;;4.60;;
70967;SDS011;58629;48.808;8.820;2023-04-29T11:56:07;6.87;;;4.57;;
70967;SDS011;58629;48.808;8.820;2023-04-29T11:58:34;7.45;;;4.60;;
70967;SDS011;58629;48.808;8.820;2023-04-29T12:01:00;8.40;;;5.07;;
70967;SDS011;58629;48.808;8.820;2023-04-29T12:03:28;7.03;;;4.85;;
70967;SDS011;58629;48.808;8.820;2023-04-29T12:05:55;7.57;;;5.40;;
70967;SDS011;58629;48.808;8.820;2023-04-29T12:08:24;8.07;;;5.22;;
70967;SDS011;58629;48.808;8.820;2023-04-29T12:10:54;9.68;;;5.10;;
70967;SDS011;58629;48.808;8.820;2023-04-29T12:13:21;8.27;;;5.40;;
70967;SDS011;58629;48.808;8.820;2023-04-29T12:15:48;9.45;;;5.78;;
70967;SDS011;58629;48.808;8.820;2023-04-29T12:18:16;9.68;;;5.45;;
70967;SDS011;58629;48.808;8.820;2023-04-29T12:20:42;9.20;;;6.00;;
70967;SDS011;58629;48.808;8.820;2023-04-29T12:23:16;8.98;;;6.20;;
70967;SDS011;58629;48.808;8.820;2023-04-29T12:25:46;9.90;;;6.07;;
70967;SDS011;58629;48.808;8.820;2023-04-29T12:28:14;10.20;;;5.72;;
70967;SDS011;58629;48.808;8.820;2023-04-29T12:30:39;9.05;;;6.00;;
70967;SDS011;58629;48.808;8.820;2023-04-29T12:33:08;8.83;;;5.50;;
70967;SDS011;58629;48.808;8.820;2023-04-29T12:35:34;8.75;;;5.82;;
70967;SDS011;58629;48.808;8.820;2023-04-29T12:38:00;7.72;;;4.63;;
70967;SDS011;58629;48.808;8.820;2023-04-29T12:40:26;8.07;;;5.43;;
70967;SDS011;58629;48.808;8.820;2023-04-29T12:42:52;9.55;;;5.95;;
70967;SDS011;58629;48.808;8.820;2023-04-29T12:45:25;10.90;;;6.30;;
70967;SDS011;58629;48.808;8.820;2023-04-29T12:47:55;8.73;;;6.17;;
70967;SDS011;58629;48.808;8.820;2023-04-29T12:50:28;9.63;;;5.72;;
70967;SDS011;58629;48.808;8.820;2023-04-29T12:53:03;9.27;;;6.00;;
70967;SDS011;58629;48.808;8.820;2023-04-29T12:55:33;9.82;;;6.82;;
70967;SDS011;58629;48.808;8.820;2023-04-29T12:58:00;9.82;;;6.57;;
70967;SDS011;58629;48.808;8.820;2023-04-29T13:00:26;10.87;;;7.03;;
70967;SDS011;58629;48.808;8.820;2023-04-29T13:02:51;10.48;;;6.93;;
70967;SDS011;58629;48.808;8.820;2023-04-29T13:05:16;10.10;;;7.03;;
70967;SDS011;58629;48.808;8.820;2023-04-29T13:07:42;11.03;;;7.23;;
70967;SDS011;58629;48.808;8.820;2023-04-29T13:10:07;9.40;;;7.00;;
70967;SDS011;58629;48.808;8.820;2023-04-29T13:12:33;12.23;;;7.37;;
70967;SDS011;58629;48.808;8.820;2023-04-29T13:14:58;10.25;;;6.95;;
70967;SDS011;58629;48.808;8.820;2023-04-29T13:17:24;9.80;;;7.00;;
70967;SDS011;58629;48.808;8.820;2023-04-29T13:19:49;11.40;;;7.73;;
70967;SDS011;58629;48.808;8.820;2023-04-29T13:22:15;11.50;;;7.40;;
70967;SDS011;58629;48.808;8.820;2023-04-29T13:24:40;10.57;;;7.30;;
70967;SDS011;58629;48.808;8.820;2023-04-29T13:27:05;10.77;;;7.17;;
70967;SDS011;58629;48.808;8.820;2023-04-29T13:29:31;9.87;;;6.63;;
70967;SDS011;58629;48.808;8.820;2023-04-29T13:31:56;10.90;;;7.17;;
70967;SDS011;58629;48.808;8.820;2023-04-29T13:34:21;12.73;;;7.77;;
70967;SDS011;58629;48.808;8.820;2023-04-29T13:36:47;11.03;;;7.40;;
70967;SDS011;58629;48.808;8.820;2023-04-29T13:39:12;11.87;;;7.93;;
70967;SDS011;58629;48.808;8.820;2023-04-29T13:41:37;11.17;;;7.30;;
70967;SDS011;58629;48.808;8.820;2023-04-29T13:44:03;11.20;;;6.90;;
70967;SDS011;58629;48.808;8.820;2023-04-29T13:46:28;12.02;;;7.53;;
70967;SDS011;58629;48.808;8.820;2023-04-29T13:48:53;12.80;;;8.30;;
70967;SDS011;58629;48.808;8.820;2023-04-29T13:51:19;12.07;;;7.80;;
70967;SDS011;58629;48.808;8.820;2023-04-29T13:53:44;11.83;;;7.53;;
70967;SDS011;58629;48.808;8.820;2023-04-29T13:56:10;15.52;;;8.07;;
70967;SDS011;58629;48.808;8.820;2023-04-29T13:58:35;12.40;;;7.07;;
70967;SDS011;58629;48.808;8.820;2023-04-29T14:01:01;11.33;;;6.90;;
70967;SDS011;58629;48.808;8.820;2023-04-29T14:03:26;11.07;;;7.10;;
70967;SDS011;58629;48.808;8.820;2023-04-29T14:05:51;10.93;;;6.93;;
70967;SDS011;58629;48.808;8.820;2023-04-29T14:08:17;12.73;;;7.10;;
70967;SDS011;58629;48.808;8.820;2023-04-29T14:10:42;10.27;;;6.93;;
70967;SDS011;58629;48.808;8.820;2023-04-29T14:13:07;10.20;;;6.30;;
70967;SDS011;58629;48.808;8.820;2023-04-29T14:15:33;10.37;;;6.37;;
70967;SDS011;58629;48.808;8.820;2023-04-29T14:17:58;10.83;;;6.33;;
70967;SDS011;58629;48.808;8.820;2023-04-29T14:20:23;11.33;;;6.90;;
70967;SDS011;58629;48.808;8.820;2023-04-29T14:22:49;10.03;;;6.00;;
70967;SDS011;58629;48.808;8.820;2023-04-29T14:25:14;9.93;;;5.97;;
70967;SDS011;58629;48.808;8.820;2023-04-29T14:27:39;10.40;;;6.23;;
70967;SDS011;58629;48.808;8.820;2023-04-29T14:30:05;11.20;;;6.30;;
70967;SDS011;58629;48.808;8.820;2023-04-29T14:32:31;10.00;;;5.70;;
70967;SDS011;58629;48.808;8.820;2023-04-29T14:34:56;10.50;;;5.83;;
70967;SDS011;58629;48.808;8.820;2023-04-29T14:37:22;12.73;;;6.22;;
70967;SDS011;58629;48.808;8.820;2023-04-29T14:39:47;9.33;;;5.50;;
70967;SDS011;58629;48.808;8.820;2023-04-29T14:42:13;9.10;;;5.63;;
70967;SDS011;58629;48.808;8.820;2023-04-29T14:44:39;9.82;;;5.90;;
70967;SDS011;58629;48.808;8.820;2023-04-29T14:47:04;9.87;;;5.77;;
70967;SDS011;58629;48.808;8.820;2023-04-29T14:49:29;9.80;;;5.30;;
70967;SDS011;58629;48.808;8.820;2023-04-29T14:51:55;9.83;;;5.83;;
70967;SDS011;58629;48.808;8.820;2023-04-29T14:54:20;9.70;;;5.43;;
70967;SDS011;58629;48.808;8.820;2023-04-29T14:56:45;8.93;;;5.10;;
70967;SDS011;58629;48.808;8.820;2023-04-29T14:59:11;9.02;;;5.60;;
70967;SDS011;58629;48.808;8.820;2023-04-29T15:01:36;9.73;;;5.70;;
70967;SDS011;58629;48.808;8.820;2023-04-29T15:04:03;10.37;;;5.90;;
70967;SDS011;58629;48.808;8.820;2023-04-29T15:06:29;10.23;;;5.88;;